Time;durP1;ratioP1;P1;durP2;ratioP2;P2;SDS_P1;SDS_P2;PMS_P1;PMS_P2;Temp;Humidity;BMP_temperature;BMP_pressure;BME280_temperature;BME280_humidity;BME280_pressure;Samples;Min_cycle;Max_cycle;Signal;HPM_P1;HPM_P2
2022/10/14 00:01:07;;;;;;;3.58;2.60;;;9.60;99.90;;;;;;5018243;28;20045;-80
2022/10/14 00:03:33;;;;;;;5.78;2.85;;;9.60;99.90;;;;;;5009578;28;20057;-80
2022/10/14 00:06:04;;;;;;;7.65;3.20;;;9.60;99.90;;;;;;5017297;28;20129;-80
2022/10/14 00:08:29;;;;;;;4.63;3.30;;;9.90;99.90;;;;;;5010205;28;20049;-80
2022/10/14 00:10:55;;;;;;;6.00;3.05;;;9.50;99.90;;;;;;5018399;28;20103;-80
2022/10/14 00:13:21;;;;;;;4.63;3.15;;;9.50;99.90;;;;;;5001019;28;20076;-80
2022/10/14 00:15:46;;;;;;;4.40;3.03;;;9.40;99.90;;;;;;4984208;28;20050;-79
2022/10/14 00:18:12;;;;;;;4.32;2.90;;;9.40;99.90;;;;;;4985906;28;20137;-79
2022/10/14 00:20:38;;;;;;;4.40;2.90;;;9.40;99.90;;;;;;5017138;28;20053;-80
2022/10/14 00:23:03;;;;;;;3.90;2.60;;;9.30;99.90;;;;;;5001443;28;20053;-80
2022/10/14 00:25:29;;;;;;;3.20;2.22;;;9.30;99.90;;;;;;5000491;28;20148;-79
2022/10/14 00:27:55;;;;;;;3.85;2.60;;;9.20;99.90;;;;;;5008508;28;20042;-80
2022/10/14 00:30:20;;;;;;;4.75;2.78;;;9.20;99.90;;;;;;5001712;28;20049;-80
2022/10/14 00:32:46;;;;;;;5.60;2.55;;;9.10;99.90;;;;;;4975947;28;20557;-80
2022/10/14 00:35:12;;;;;;;3.72;2.60;;;9.10;99.90;;;;;;4985161;28;20065;-79
2022/10/14 00:37:38;;;;;;;16.65;3.25;;;9.10;99.90;;;;;;4985625;28;20452;-79
2022/10/14 00:40:04;;;;;;;9.68;3.13;;;8.90;99.90;;;;;;5001981;28;20052;-80
2022/10/14 00:42:33;;;;;;;19.25;3.05;;;9.00;99.90;;;;;;5000670;28;20049;-80
2022/10/14 00:45:13;;;;;;;31.08;3.42;;;9.10;99.90;;;;;;5000953;28;20446;-80
2022/10/14 00:47:40;;;;;;;33.55;3.72;;;9.00;99.90;;;;;;5008823;28;20068;-79
2022/10/14 00:50:06;;;;;;;12.45;2.88;;;8.90;99.90;;;;;;5017504;28;20072;-80
2022/10/14 00:52:31;;;;;;;14.10;2.67;;;8.90;99.90;;;;;;4984740;28;20498;-80
2022/10/14 00:55:05;;;;;;;14.57;3.03;;;8.90;99.90;;;;;;5017717;28;20050;-79
2022/10/14 00:57:31;;;;;;;10.75;3.28;;;8.90;99.90;;;;;;5043832;28;20399;-80
2022/10/14 01:00:23;;;;;;;49.20;5.05;;;8.90;99.90;;;;;;5021516;28;20066;-80
2022/10/14 01:02:49;;;;;;;21.73;3.20;;;8.90;99.90;;;;;;5010402;28;20169;-80
2022/10/14 01:05:18;;;;;;;4.20;3.00;;;8.90;99.90;;;;;;4987971;28;20223;-79
2022/10/14 01:07:57;;;;;;;6.38;2.90;;;8.80;99.90;;;;;;5022870;28;20060;-80
2022/10/14 01:10:51;;;;;;;19.92;3.22;;;8.80;99.90;;;;;;5021302;28;20049;-79
2022/10/14 01:13:29;;;;;;;15.23;3.03;;;8.80;99.90;;;;;;5012742;28;20058;-80
2022/10/14 01:16:10;;;;;;;7.22;2.60;;;8.80;99.90;;;;;;5004163;28;20127;-79
2022/10/14 01:19:06;;;;;;;13.32;3.03;;;8.80;99.90;;;;;;5029169;28;20068;-79
2022/10/14 01:21:38;;;;;;;7.20;2.88;;;8.70;99.90;;;;;;5020568;28;20057;-80
2022/10/14 01:24:17;;;;;;;22.08;3.15;;;8.70;99.90;;;;;;5021605;28;20050;-80
2022/10/14 01:27:17;;;;;;;4.20;2.33;;;8.60;99.90;;;;;;5004629;28;20076;-80
2022/10/14 01:29:48;;;;;;;4.03;2.35;;;8.60;99.90;;;;;;5027871;28;20079;-79
2022/10/14 01:32:28;;;;;;;2.75;2.15;;;8.60;99.90;;;;;;5020912;28;20111;-79
2022/10/14 01:35:10;;;;;;;6.28;2.08;;;8.60;99.90;;;;;;5020491;28;20057;-79
2022/10/14 01:37:40;;;;;;;35.90;2.90;;;8.50;99.90;;;;;;5027842;28;20077;-79
2022/10/14 01:40:12;;;;;;;22.85;2.28;;;8.50;99.90;;;;;;5021244;28;20049;-79
2022/10/14 01:42:40;;;;;;;19.38;2.22;;;8.40;99.90;;;;;;5019991;28;20128;-78
2022/10/14 01:45:19;;;;;;;11.60;2.40;;;8.40;99.90;;;;;;5011540;28;20443;-79
2022/10/14 01:47:49;;;;;;;43.05;2.95;;;8.40;99.90;;;;;;5019221;28;20538;-79
2022/10/14 01:50:18;;;;;;;72.75;4.53;;;8.20;99.90;;;;;;5020911;28;20120;-79
2022/10/14 01:52:53;;;;;;;46.38;3.30;;;8.40;99.90;;;;;;5028043;28;20865;-79
2022/10/14 01:55:24;;;;;;;27.92;2.97;;;8.10;99.90;;;;;;5020365;28;20056;-79
2022/10/14 01:57:52;;;;;;;4.63;2.03;;;8.10;99.90;;;;;;5021195;28;20045;-79
2022/10/14 02:00:18;;;;;;;16.00;2.35;;;8.10;99.90;;;;;;5027142;28;20161;-79
2022/10/14 02:02:44;;;;;;;22.85;3.00;;;8.10;99.90;;;;;;5020610;28;20128;-79
2022/10/14 02:05:26;;;;;;;11.85;2.58;;;8.00;99.90;;;;;;5004337;28;20112;-79
2022/10/14 02:07:58;;;;;;;8.93;1.92;;;8.00;99.90;;;;;;5028208;28;20049;-79
2022/10/14 02:10:56;;;;;;;12.82;2.25;;;8.10;99.90;;;;;;5028348;28;20077;-79
2022/10/14 02:13:37;;;;;;;17.27;2.70;;;8.00;99.90;;;;;;5004431;28;20073;-79
2022/10/14 02:16:16;;;;;;;9.77;2.88;;;8.00;99.90;;;;;;5011080;28;20118;-79
2022/10/14 02:19:23;;;;;;;28.63;2.78;;;8.00;99.90;;;;;;5003810;28;20566;-79
2022/10/14 02:21:55;;;;;;;22.80;3.20;;;8.00;99.90;;;;;;5017855;28;20053;-79
2022/10/14 02:24:34;;;;;;;16.17;3.38;;;8.00;99.90;;;;;;5002626;28;20477;-79
2022/10/14 02:27:04;;;;;;;55.88;4.95;;;8.00;99.90;;;;;;5010529;28;20049;-79
2022/10/14 02:29:32;;;;;;;14.80;3.60;;;8.10;99.90;;;;;;5019934;28;20049;-80
2022/10/14 02:31:58;;;;;;;15.52;3.45;;;8.00;99.90;;;;;;5010424;28;20439;-79
2022/10/14 02:34:25;;;;;;;26.30;3.90;;;8.10;99.90;;;;;;5037250;28;20053;-79
2022/10/14 02:36:53;;;;;;;18.17;4.70;;;8.10;99.90;;;;;;5018839;28;20038;-79
2022/10/14 02:39:33;;;;;;;38.17;4.50;;;8.10;99.90;;;;;;5020013;28;20053;-79
2022/10/14 02:41:59;;;;;;;11.35;4.28;;;8.10;99.90;;;;;;5026095;28;20124;-80
2022/10/14 02:44:24;;;;;;;27.00;4.63;;;8.10;99.90;;;;;;5003884;28;20160;-79
2022/10/14 02:46:50;;;;;;;19.20;4.18;;;8.10;99.90;;;;;;5018876;28;20065;-79
2022/10/14 02:49:16;;;;;;;46.58;5.55;;;8.10;99.90;;;;;;5003795;28;20050;-79
2022/10/14 02:51:42;;;;;;;61.00;6.07;;;8.30;99.90;;;;;;5002175;28;20049;-79
2022/10/14 02:54:07;;;;;;;34.03;5.57;;;8.10;99.90;;;;;;5019000;28;20644;-79
2022/10/14 02:56:33;;;;;;;6.50;4.95;;;8.20;99.90;;;;;;5018816;28;20077;-79
2022/10/14 02:58:59;;;;;;;23.15;5.28;;;8.40;99.90;;;;;;5003702;28;20057;-79
2022/10/14 03:01:25;;;;;;;47.17;6.85;;;8.10;99.90;;;;;;5019511;28;20195;-79
2022/10/14 03:03:50;;;;;;;36.58;6.85;;;8.10;99.90;;;;;;5001679;28;20049;-79
2022/10/14 03:06:16;;;;;;;70.25;8.88;;;8.10;99.90;;;;;;5018808;28;20050;-79
2022/10/14 03:08:42;;;;;;;66.57;8.80;;;8.20;99.90;;;;;;5019244;28;20060;-78
2022/10/14 03:11:07;;;;;;;65.57;9.23;;;8.20;99.90;;;;;;4987206;28;20071;-78
2022/10/14 03:13:33;;;;;;;45.38;8.35;;;8.20;99.90;;;;;;5003012;28;20064;-79
2022/10/14 03:15:59;;;;;;;37.78;9.00;;;8.20;99.90;;;;;;5018283;28;20037;-78
2022/10/14 03:18:25;;;;;;;79.82;11.07;;;8.30;99.90;;;;;;5003174;28;20045;-79
2022/10/14 03:20:51;;;;;;;30.00;9.10;;;8.30;99.90;;;;;;5026088;28;20065;-79
2022/10/14 03:23:16;;;;;;;77.47;12.35;;;8.40;99.90;;;;;;4985949;28;20060;-78
2022/10/14 03:25:45;;;;;;;60.75;10.65;;;8.50;99.90;;;;;;5001228;28;20619;-79
2022/10/14 03:28:12;;;;;;;55.83;11.10;;;8.50;99.90;;;;;;5017891;28;20051;-79
2022/10/14 03:30:38;;;;;;;55.78;11.02;;;9.00;99.90;;;;;;4993229;28;20057;-79
2022/10/14 03:33:04;;;;;;;22.70;10.02;;;8.60;99.90;;;;;;5018849;28;20061;-78
2022/10/14 03:35:29;;;;;;;43.78;11.43;;;8.70;99.90;;;;;;5019037;28;20059;-79
2022/10/14 03:37:55;;;;;;;52.72;11.68;;;8.70;99.90;;;;;;5001273;28;20506;-79
2022/10/14 03:40:21;;;;;;;53.20;11.77;;;8.80;99.90;;;;;;5001809;28;20119;-79
2022/10/14 03:42:47;;;;;;;31.80;11.90;;;8.80;99.90;;;;;;5017779;28;20037;-79
2022/10/14 03:45:13;;;;;;;18.98;11.52;;;8.90;99.90;;;;;;5002748;28;20055;-79
2022/10/14 03:47:38;;;;;;;25.85;12.60;;;8.90;99.90;;;;;;5018579;28;20057;-77
2022/10/14 03:50:05;;;;;;;77.25;14.40;;;8.90;99.90;;;;;;4986064;28;20068;-78
2022/10/14 03:52:31;;;;;;;104.80;17.25;;;9.00;99.90;;;;;;4985298;28;20120;-79
2022/10/14 03:54:57;;;;;;;36.08;13.93;;;9.10;99.90;;;;;;5018812;28;20463;-79
2022/10/14 03:57:23;;;;;;;62.83;14.73;;;9.20;99.90;;;;;;4986541;28;20089;-79
2022/10/14 03:59:49;;;;;;;59.20;15.50;;;9.30;99.90;;;;;;4985040;28;20123;-79
2022/10/14 04:02:15;;;;;;;123.50;17.60;;;9.40;99.90;;;;;;5023278;28;20467;-78
2022/10/14 04:04:40;;;;;;;117.03;17.08;;;9.40;99.90;;;;;;4999090;28;20087;-78
2022/10/14 04:07:06;;;;;;;198.18;20.15;;;9.50;99.90;;;;;;5002482;28;20054;-78
2022/10/14 04:09:32;;;;;;;112.85;18.17;;;9.60;99.90;;;;;;5015473;28;20049;-79
2022/10/14 04:11:57;;;;;;;89.57;16.70;;;9.70;99.90;;;;;;4985611;28;20089;-79
2022/10/14 04:14:25;;;;;;;118.70;16.10;;;9.80;99.90;;;;;;4984614;28;20513;-79
2022/10/14 04:16:51;;;;;;;86.75;15.90;;;9.80;99.90;;;;;;4999988;28;20050;-80
2022/10/14 04:19:18;;;;;;;129.40;19.35;;;9.90;99.90;;;;;;5016235;28;20046;-79
2022/10/14 04:21:43;;;;;;;88.65;15.98;;;9.90;99.90;;;;;;4984795;28;20129;-79
2022/10/14 04:24:09;;;;;;;185.07;19.52;;;9.90;99.90;;;;;;5017316;28;20136;-79
2022/10/14 04:26:35;;;;;;;82.15;16.38;;;10.00;99.90;;;;;;5001297;28;20046;-79
2022/10/14 04:29:00;;;;;;;99.97;16.38;;;10.10;99.90;;;;;;5017787;28;20045;-78
2022/10/14 04:31:26;;;;;;;58.65;12.88;;;10.40;99.90;;;;;;5000317;28;20057;-79
2022/10/14 04:33:52;;;;;;;26.23;11.30;;;10.10;99.90;;;;;;5000494;28;20065;-79
2022/10/14 04:36:18;;;;;;;21.17;9.73;;;10.10;99.90;;;;;;5008854;28;20041;-79
2022/10/14 04:38:43;;;;;;;53.28;10.98;;;10.10;99.90;;;;;;5016262;28;20095;-79
2022/10/14 04:41:09;;;;;;;41.40;9.30;;;10.10;99.90;;;;;;5018260;28;20147;-79
2022/10/14 04:43:35;;;;;;;32.08;7.90;;;10.10;99.90;;;;;;5017996;28;20049;-79
2022/10/14 04:46:01;;;;;;;42.90;7.47;;;10.10;99.90;;;;;;4985069;28;20411;-79
2022/10/14 04:48:27;;;;;;;25.35;7.13;;;10.10;99.90;;;;;;5002034;28;20046;-78
2022/10/14 04:50:53;;;;;;;39.80;7.57;;;10.10;99.90;;;;;;4984532;28;20072;-79
2022/10/14 04:53:19;;;;;;;26.48;7.07;;;10.10;99.90;;;;;;5023732;28;20067;-79
2022/10/14 04:55:48;;;;;;;25.77;7.28;;;10.10;99.90;;;;;;4999136;28;20041;-79
2022/10/14 04:58:15;;;;;;;33.25;7.72;;;10.10;99.90;;;;;;5016806;28;20124;-80
2022/10/14 05:00:41;;;;;;;24.45;7.38;;;10.10;99.90;;;;;;5017693;28;20062;-79
2022/10/14 05:03:07;;;;;;;28.85;6.93;;;10.10;99.90;;;;;;5008314;28;20042;-79
2022/10/14 05:05:33;;;;;;;60.70;8.63;;;10.10;99.90;;;;;;5016910;28;20053;-79
2022/10/14 05:07:59;;;;;;;26.27;7.03;;;10.10;99.90;;;;;;5018042;28;20053;-79
2022/10/14 05:10:25;;;;;;;57.97;8.90;;;10.10;99.90;;;;;;5001364;28;20038;-79
2022/10/14 05:12:51;;;;;;;51.45;8.20;;;10.10;99.90;;;;;;5017067;28;20056;-79
2022/10/14 05:15:16;;;;;;;59.50;8.18;;;10.20;99.90;;;;;;4974734;28;20129;-79
2022/10/14 05:17:43;;;;;;;42.45;8.00;;;10.20;99.90;;;;;;5001538;28;20052;-81
2022/10/14 05:20:10;;;;;;;74.22;8.93;;;10.20;99.90;;;;;;4984319;28;20457;-79
2022/10/14 05:22:37;;;;;;;27.88;6.53;;;10.20;99.90;;;;;;5017819;28;20140;-78
2022/10/14 05:25:03;;;;;;;31.33;7.53;;;10.20;99.90;;;;;;5021536;28;20056;-79
2022/10/14 05:27:29;;;;;;;24.67;6.53;;;10.20;99.90;;;;;;5025111;28;20096;-79
2022/10/14 05:29:54;;;;;;;19.73;6.72;;;10.20;99.90;;;;;;5016770;28;20069;-79
2022/10/14 05:32:20;;;;;;;43.33;7.75;;;10.20;99.90;;;;;;5016997;28;20103;-78
2022/10/14 05:34:46;;;;;;;37.60;7.95;;;10.20;99.90;;;;;;5000775;28;20181;-79
2022/10/14 05:37:12;;;;;;;41.15;7.60;;;10.20;99.90;;;;;;5000429;28;20133;-79
2022/10/14 05:39:38;;;;;;;24.05;7.80;;;10.20;99.90;;;;;;5016793;28;20107;-79
2022/10/14 05:42:04;;;;;;;32.25;7.10;;;10.30;99.90;;;;;;5015890;28;20117;-78
2022/10/14 05:44:29;;;;;;;53.13;10.45;;;10.20;99.90;;;;;;5021163;28;20050;-79
2022/10/14 05:46:55;;;;;;;29.10;7.55;;;10.30;99.90;;;;;;4995160;28;20060;-79
2022/10/14 05:49:21;;;;;;;44.80;8.63;;;10.30;99.90;;;;;;5004245;28;20042;-79
2022/10/14 05:51:47;;;;;;;47.55;8.90;;;10.30;99.90;;;;;;5003687;28;20070;-80
2022/10/14 05:54:12;;;;;;;59.42;8.88;;;10.30;99.90;;;;;;4996105;28;20049;-79
2022/10/14 05:56:43;;;;;;;36.60;7.45;;;10.30;99.90;;;;;;4994607;28;20041;-78
2022/10/14 05:59:10;;;;;;;45.38;8.75;;;9.90;99.90;;;;;;4987248;28;20489;-79
2022/10/14 06:01:37;;;;;;;53.70;9.85;;;10.30;99.90;;;;;;5004972;28;20046;-80
2022/10/14 06:04:03;;;;;;;47.90;9.80;;;10.30;99.90;;;;;;5019440;28;20048;-80
2022/10/14 06:06:29;;;;;;;63.17;12.00;;;10.40;99.90;;;;;;5020059;28;20053;-80
2022/10/14 06:08:55;;;;;;;53.28;11.52;;;10.40;99.90;;;;;;5011378;28;20050;-79
2022/10/14 06:11:21;;;;;;;46.03;11.80;;;10.40;99.90;;;;;;5002967;28;20048;-82
2022/10/14 06:13:47;;;;;;;36.22;12.20;;;10.40;99.90;;;;;;5002074;28;20046;-81
2022/10/14 06:16:13;;;;;;;43.55;12.43;;;10.40;99.90;;;;;;5016489;28;20049;-84
2022/10/14 06:18:39;;;;;;;40.05;12.75;;;10.40;99.90;;;;;;4987961;28;20050;-84
2022/10/14 06:21:05;;;;;;;36.53;11.88;;;10.40;99.90;;;;;;5009275;28;20604;-80
2022/10/14 06:23:31;;;;;;;47.88;12.90;;;10.40;99.90;;;;;;5019487;28;20115;-81
2022/10/14 06:25:57;;;;;;;58.58;12.38;;;10.40;99.90;;;;;;5002544;28;20064;-81
2022/10/14 06:28:23;;;;;;;46.78;12.05;;;10.40;99.90;;;;;;5020551;28;20567;-82
2022/10/14 06:30:53;;;;;;;80.95;13.25;;;10.40;99.90;;;;;;5002970;28;20089;-83
2022/10/14 06:33:20;;;;;;;39.35;12.27;;;10.30;99.90;;;;;;5027069;28;20045;-82
2022/10/14 06:35:46;;;;;;;80.75;14.30;;;10.30;99.90;;;;;;4986155;28;20045;-82
2022/10/14 06:38:13;;;;;;;87.80;15.13;;;10.30;99.90;;;;;;5003997;28;20085;-82
2022/10/14 06:40:39;;;;;;;71.32;13.25;;;10.30;99.90;;;;;;5010929;28;20050;-82
2022/10/14 06:43:04;;;;;;;46.13;12.82;;;10.20;99.90;;;;;;5001064;28;20042;-81
2022/10/14 06:45:30;;;;;;;113.90;16.77;;;10.20;99.90;;;;;;5019330;28;20068;-80
2022/10/14 06:47:56;;;;;;;29.95;12.70;;;10.20;99.90;;;;;;5008955;28;20056;-81
2022/10/14 06:50:22;;;;;;;47.65;12.32;;;10.20;99.90;;;;;;5003037;28;20053;-81
2022/10/14 06:52:48;;;;;;;106.45;13.60;;;10.20;99.90;;;;;;5027636;28;20049;-81
2022/10/14 06:55:14;;;;;;;26.67;11.15;;;10.20;99.90;;;;;;5002045;28;20049;-81
2022/10/14 06:57:40;;;;;;;66.70;12.13;;;10.10;99.90;;;;;;5001550;28;20073;-81
2022/10/14 07:00:06;;;;;;;54.47;12.30;;;10.10;99.90;;;;;;5000637;28;20080;-82
2022/10/14 07:02:32;;;;;;;37.05;11.77;;;10.10;99.90;;;;;;4985042;28;20064;-83
2022/10/14 07:04:58;;;;;;;51.42;12.18;;;10.10;99.90;;;;;;4982294;28;20050;-81
2022/10/14 07:07:24;;;;;;;43.63;12.05;;;10.00;99.90;;;;;;5016082;28;20037;-81
2022/10/14 07:09:50;;;;;;;68.25;14.93;;;10.10;99.90;;;;;;5006835;28;20057;-81
2022/10/14 07:12:15;;;;;;;23.73;11.95;;;10.10;99.90;;;;;;4998522;28;20049;-82
2022/10/14 07:14:41;;;;;;;52.35;14.18;;;10.10;99.90;;;;;;4984702;28;20116;-81
2022/10/14 07:17:08;;;;;;;41.22;13.38;;;10.10;99.90;;;;;;5015700;28;20049;-81
2022/10/14 07:19:33;;;;;;;32.47;13.40;;;10.10;99.90;;;;;;5033671;28;20081;-82
2022/10/14 07:22:00;;;;;;;48.08;14.93;;;10.10;99.90;;;;;;5000480;28;20175;-81
2022/10/14 07:24:25;;;;;;;42.28;15.27;;;10.20;99.90;;;;;;5003728;28;20049;-84
2022/10/14 07:26:51;;;;;;;29.00;14.63;;;10.20;99.90;;;;;;5003306;28;20226;-83
2022/10/14 07:29:17;;;;;;;46.58;14.85;;;10.20;99.90;;;;;;4981062;28;20045;-82
2022/10/14 07:31:43;;;;;;;33.70;15.32;;;10.30;99.90;;;;;;5005049;28;20055;-82
2022/10/14 07:34:09;;;;;;;30.05;15.20;;;10.30;99.90;;;;;;4995036;28;20062;-80
2022/10/14 07:36:35;;;;;;;26.77;14.63;;;10.30;99.90;;;;;;5015792;28;20119;-80
2022/10/14 07:39:01;;;;;;;26.65;14.90;;;10.40;99.90;;;;;;5013152;28;20464;-80
2022/10/14 07:41:27;;;;;;;28.90;15.63;;;10.40;99.90;;;;;;5016155;28;21143;-84
2022/10/14 07:43:56;;;;;;;28.15;16.15;;;10.40;99.90;;;;;;4980190;28;20077;-84
2022/10/14 07:46:41;;;;;;;29.67;16.05;;;10.50;99.90;;;;;;5021508;28;20053;-86
2022/10/14 07:49:15;;;;;;;26.48;15.18;;;10.50;99.90;;;;;;5001032;28;20406;-84
2022/10/14 07:51:41;;;;;;;27.38;15.25;;;10.60;99.90;;;;;;5017396;28;20194;-85
2022/10/14 07:54:14;;;;;;;24.88;14.15;;;10.60;99.90;;;;;;4996446;28;20057;-82
2022/10/14 07:56:42;;;;;;;26.67;14.40;;;10.70;99.90;;;;;;5023597;28;20451;-83
2022/10/14 07:59:07;;;;;;;27.52;14.82;;;10.70;99.90;;;;;;4990486;28;20037;-83
2022/10/14 08:01:33;;;;;;;26.38;14.10;;;10.80;99.90;;;;;;4998050;28;20125;-83
2022/10/14 08:03:59;;;;;;;28.27;15.30;;;10.90;99.90;;;;;;5014063;28;20122;-82
2022/10/14 08:06:25;;;;;;;24.88;14.40;;;10.90;99.90;;;;;;5001933;28;20396;-85
2022/10/14 08:08:51;;;;;;;24.83;14.25;;;10.90;99.90;;;;;;5001467;28;20055;-83
2022/10/14 08:11:26;;;;;;;22.30;11.77;;;11.00;99.90;;;;;;4982361;28;20092;-85
2022/10/14 08:13:53;;;;;;;24.88;13.80;;;11.00;99.90;;;;;;5005715;28;20045;-85
2022/10/14 08:16:22;;;;;;;21.77;12.65;;;11.00;99.90;;;;;;5002400;28;20541;-85
2022/10/14 08:18:48;;;;;;;23.50;13.10;;;11.90;99.90;;;;;;4998879;28;20048;-81
2022/10/14 08:21:16;;;;;;;25.95;12.88;;;11.10;99.90;;;;;;4998796;28;20273;-87
2022/10/14 08:23:42;;;;;;;25.45;13.68;;;11.10;99.90;;;;;;4995376;28;20058;-84
2022/10/14 08:26:34;;;;;;;26.15;15.25;;;11.20;99.90;;;;;;4970233;28;20045;-86
2022/10/14 08:29:04;;;;;;;25.17;14.88;;;11.20;99.90;;;;;;5016731;28;20050;-86
2022/10/14 08:31:44;;;;;;;26.48;15.35;;;11.20;99.90;;;;;;4996670;28;20500;-86
2022/10/14 08:34:10;;;;;;;29.70;15.52;;;11.40;99.90;;;;;;4999901;28;20108;-85
2022/10/14 08:36:36;;;;;;;28.13;15.98;;;11.30;99.90;;;;;;5000876;28;20106;-85
2022/10/14 08:39:04;;;;;;;28.55;15.45;;;11.30;99.90;;;;;;5016396;28;20045;-84
2022/10/14 08:41:50;;;;;;;32.03;16.92;;;11.40;99.90;;;;;;4998215;28;20081;-86
2022/10/14 08:44:41;;;;;;;28.60;15.37;;;11.50;99.90;;;;;;4994855;28;20049;-83
2022/10/14 08:47:14;;;;;;;32.08;16.25;;;11.50;99.90;;;;;;5004256;28;20308;-83
2022/10/14 08:50:01;;;;;;;31.33;17.27;;;11.60;99.90;;;;;;5015193;28;20053;-83
2022/10/14 08:53:03;;;;;;;28.40;16.77;;;11.60;99.90;;;;;;5005161;28;20141;-84
2022/10/14 08:55:45;;;;;;;35.42;16.65;;;11.70;99.90;;;;;;4997064;28;20053;-85
2022/10/14 08:58:23;;;;;;;32.72;17.27;;;11.70;99.90;;;;;;5023519;28;20050;-87
2022/10/14 09:00:55;;;;;;;30.13;17.00;;;11.80;99.90;;;;;;5008644;28;20491;-83
2022/10/14 09:03:35;;;;;;;30.55;17.17;;;11.80;99.90;;;;;;5015193;28;20048;-85
2022/10/14 09:06:06;;;;;;;30.80;16.38;;;11.80;99.90;;;;;;5016276;28;20578;-85
2022/10/14 09:08:41;;;;;;;31.23;18.02;;;11.90;99.90;;;;;;5022485;28;20067;-88
2022/10/14 09:11:16;;;;;;;32.92;16.75;;;11.80;99.90;;;;;;4996565;28;20104;-87
2022/10/14 09:13:46;;;;;;;36.72;19.08;;;11.80;99.90;;;;;;5015262;28;20062;-85
2022/10/14 09:16:44;;;;;;;31.92;17.98;;;11.00;99.90;;;;;;5020619;28;20647;-85
2022/10/14 09:19:20;;;;;;;32.05;16.45;;;11.90;99.90;;;;;;5006597;28;20061;-87
2022/10/14 09:21:50;;;;;;;30.20;17.05;;;11.90;99.90;;;;;;5000193;28;20128;-86
2022/10/14 09:24:31;;;;;;;30.13;16.35;;;11.90;99.90;;;;;;5025672;28;20072;-86
2022/10/14 09:27:09;;;;;;;33.08;17.13;;;12.00;99.90;;;;;;5018635;28;20044;-85
2022/10/14 09:29:47;;;;;;;34.97;17.52;;;11.70;99.90;;;;;;5008025;28;20110;-85
2022/10/14 09:32:25;;;;;;;32.10;17.27;;;12.00;99.90;;;;;;5021931;28;20092;-86
2022/10/14 09:34:52;;;;;;;28.83;16.08;;;12.00;99.90;;;;;;5009161;28;20057;-84
2022/10/14 09:37:35;;;;;;;32.00;17.52;;;12.10;99.90;;;;;;5009304;28;20049;-84
2022/10/14 09:40:08;;;;;;;30.40;16.15;;;12.10;99.90;;;;;;4998969;28;20244;-86
2022/10/14 09:42:52;;;;;;;27.23;15.38;;;12.10;99.90;;;;;;4999725;28;20037;-86
2022/10/14 09:45:21;;;;;;;27.23;15.02;;;12.10;99.90;;;;;;5017007;28;20045;-84
2022/10/14 09:47:54;;;;;;;29.55;15.38;;;12.10;99.90;;;;;;5004969;28;20049;-84
2022/10/14 09:50:30;;;;;;;28.17;14.43;;;12.20;99.90;;;;;;5009538;28;20060;-86
2022/10/14 09:53:06;;;;;;;26.38;14.10;;;12.20;99.90;;;;;;5034430;28;20076;-87
2022/10/14 09:55:33;;;;;;;25.80;13.68;;;12.20;99.90;;;;;;5005512;28;20053;-80
2022/10/14 09:58:12;;;;;;;22.70;12.88;;;12.30;99.90;;;;;;5018422;28;20053;-82
2022/10/14 10:00:39;;;;;;;22.38;11.70;;;11.60;99.90;;;;;;5008548;28;20048;-82
2022/10/14 10:03:06;;;;;;;21.35;11.38;;;12.30;99.90;;;;;;5004382;28;20483;-89
2022/10/14 10:05:34;;;;;;;20.83;11.60;;;12.30;99.90;;;;;;5002523;28;20057;-81
2022/10/14 10:08:12;;;;;;;19.63;10.40;;;12.80;99.90;;;;;;5017379;28;20050;-80
2022/10/14 10:10:38;;;;;;;18.52;10.90;;;12.30;99.90;;;;;;4997297;28;20491;-81
2022/10/14 10:13:20;;;;;;;17.90;10.18;;;12.40;99.90;;;;;;5017339;28;20056;-81
2022/10/14 10:15:58;;;;;;;18.52;10.02;;;12.50;99.90;;;;;;5015708;28;20064;-81
2022/10/14 10:18:25;;;;;;;19.17;10.30;;;12.50;99.90;;;;;;5032451;28;20767;-82
2022/10/14 10:21:13;;;;;;;17.63;10.02;;;12.50;99.90;;;;;;5005918;28;20140;-81
2022/10/14 10:23:51;;;;;;;15.65;9.10;;;12.60;99.90;;;;;;5005392;28;20049;-84
2022/10/14 10:26:28;;;;;;;16.08;8.32;;;12.60;99.90;;;;;;5013452;28;20084;-82
2022/10/14 10:28:56;;;;;;;16.50;9.60;;;12.50;99.90;;;;;;5004369;28;20041;-83
2022/10/14 10:31:44;;;;;;;18.30;9.82;;;12.80;99.90;;;;;;5011968;28;20057;-82
2022/10/14 10:34:40;;;;;;;15.68;9.45;;;13.00;99.90;;;;;;4994102;28;20049;-84
2022/10/14 10:37:07;;;;;;;14.95;8.82;;;13.10;99.90;;;;;;5003135;28;20048;-82
2022/10/14 10:39:53;;;;;;;13.38;8.18;;;13.10;99.90;;;;;;5006097;28;20069;-87
2022/10/14 10:42:38;;;;;;;11.65;7.95;;;13.20;99.90;;;;;;5018378;28;20051;-82
2022/10/14 10:45:35;;;;;;;13.02;7.78;;;12.30;99.90;;;;;;5014215;28;20124;-83
2022/10/14 10:48:29;;;;;;;9.60;6.40;;;13.20;99.90;;;;;;5005759;28;20099;-84
2022/10/14 10:50:57;;;;;;;11.43;6.32;;;13.30;99.90;;;;;;5007756;28;20040;-86
2022/10/14 10:53:54;;;;;;;10.50;6.05;;;13.20;99.90;;;;;;5017505;28;20056;-86
2022/10/14 10:56:45;;;;;;;9.18;5.80;;;13.30;99.90;;;;;;5015673;28;20694;-88
2022/10/14 10:59:24;;;;;;;9.77;6.00;;;13.30;99.90;;;;;;5024275;28;20567;-85
2022/10/14 11:02:02;;;;;;;10.27;5.60;;;13.30;99.90;;;;;;5016191;28;20562;-81
2022/10/14 11:04:56;;;;;;;8.43;5.47;;;13.30;99.90;;;;;;5019021;28;20155;-84
2022/10/14 11:13:04;;;;;;;8.77;5.57;;;13.30;99.90;;;;;;5017096;28;21006;-81
2022/10/14 11:15:58;;;;;;;7.57;4.85;;;13.30;99.90;;;;;;5014310;28;20398;-81
2022/10/14 11:18:52;;;;;;;7.18;5.10;;;13.30;99.90;;;;;;4997218;28;20099;-80
2022/10/14 11:21:39;;;;;;;8.50;5.75;;;13.30;99.90;;;;;;5018559;28;20112;-80
2022/10/14 11:24:28;;;;;;;8.07;5.07;;;13.30;99.90;;;;;;4994510;28;20061;-83
2022/10/14 11:27:01;;;;;;;8.40;4.95;;;13.30;99.90;;;;;;5013938;28;20057;-82
2022/10/14 11:29:49;;;;;;;7.50;5.13;;;13.30;99.90;;;;;;5015900;28;20049;-83
2022/10/14 11:32:37;;;;;;;8.48;4.97;;;13.30;99.90;;;;;;4995115;28;20049;-82
2022/10/14 11:35:11;;;;;;;6.68;4.75;;;13.30;99.90;;;;;;4996451;28;20057;-82
2022/10/14 11:38:01;;;;;;;7.18;4.97;;;13.30;99.90;;;;;;5005007;28;20038;-82
2022/10/14 11:41:00;;;;;;;7.97;5.30;;;13.30;99.90;;;;;;5031605;28;20049;-81
2022/10/14 11:43:31;;;;;;;9.52;5.18;;;13.20;99.90;;;;;;5016271;28;20482;-82
2022/10/14 11:46:19;;;;;;;7.95;5.22;;;13.20;99.90;;;;;;5012555;28;20525;-82
2022/10/14 11:48:53;;;;;;;9.63;5.78;;;13.20;99.90;;;;;;5006170;28;20053;-81
2022/10/14 11:51:39;;;;;;;8.80;5.97;;;13.30;99.90;;;;;;5019107;28;20128;-80
2022/10/14 11:54:27;;;;;;;8.65;5.40;;;13.30;99.90;;;;;;5001575;28;20060;-80
2022/10/14 11:57:23;;;;;;;10.00;5.97;;;13.30;99.90;;;;;;5013111;28;20077;-81
2022/10/14 11:59:59;;;;;;;8.70;5.43;;;13.40;99.90;;;;;;4989885;28;20068;-81
2022/10/14 12:02:58;;;;;;;10.50;6.25;;;13.40;99.90;;;;;;5014084;28;20045;-82
2022/10/14 12:05:36;;;;;;;9.82;5.93;;;13.40;99.90;;;;;;4990060;28;20111;-82
2022/10/14 12:08:24;;;;;;;8.57;6.18;;;13.40;99.90;;;;;;4997646;28;20064;-82
2022/10/14 12:11:24;;;;;;;8.88;5.85;;;13.40;99.90;;;;;;5009322;28;20064;-81
2022/10/14 12:14:08;;;;;;;8.98;6.50;;;13.40;99.90;;;;;;5036147;28;20053;-82
2022/10/14 12:16:38;;;;;;;9.13;5.47;;;13.40;99.90;;;;;;5012993;28;20310;-81
2022/10/14 12:19:08;;;;;;;10.30;6.70;;;13.40;99.90;;;;;;4996723;28;20045;-81
2022/10/14 12:22:11;;;;;;;9.85;6.70;;;13.50;99.90;;;;;;5019273;28;20057;-82
2022/10/14 12:24:42;;;;;;;12.43;6.80;;;13.50;99.90;;;;;;5002536;28;20085;-82
2022/10/14 12:27:11;;;;;;;7.97;5.93;;;13.50;99.90;;;;;;5024382;28;20053;-81
2022/10/14 12:29:41;;;;;;;10.18;6.57;;;13.50;99.90;;;;;;5002388;28;20046;-82
2022/10/14 12:32:18;;;;;;;9.57;6.50;;;13.50;99.90;;;;;;5024802;28;20427;-81
2022/10/14 12:34:47;;;;;;;9.65;5.97;;;13.60;99.90;;;;;;5001085;28;20053;-82
2022/10/14 12:37:30;;;;;;;10.10;5.88;;;13.60;99.90;;;;;;5018296;28;20042;-81
2022/10/14 12:40:23;;;;;;;8.57;5.88;;;13.60;99.90;;;;;;5018159;28;20406;-82
2022/10/14 12:43:13;;;;;;;8.07;5.65;;;13.60;99.90;;;;;;5017826;28;20372;-81
2022/10/14 12:45:48;;;;;;;7.93;5.90;;;13.60;99.90;;;;;;5001451;28;20042;-81
2022/10/14 12:48:25;;;;;;;7.35;5.50;;;13.60;99.90;;;;;;4999956;28;20056;-81
2022/10/14 12:51:09;;;;;;;7.85;5.35;;;13.60;99.90;;;;;;5003212;28;20045;-81
2022/10/14 12:53:38;;;;;;;7.25;5.30;;;13.60;99.90;;;;;;5013666;28;20045;-80
2022/10/14 12:56:04;;;;;;;6.93;5.15;;;13.70;99.90;;;;;;5005216;28;20087;-81
2022/10/14 12:58:40;;;;;;;6.63;4.80;;;13.70;99.90;;;;;;5005130;28;20049;-80
2022/10/14 13:01:24;;;;;;;8.10;5.03;;;13.70;99.90;;;;;;5011922;28;20049;-81
2022/10/14 13:04:12;;;;;;;7.18;4.63;;;13.70;99.90;;;;;;5020354;28;20052;-81
2022/10/14 13:06:41;;;;;;;7.10;4.15;;;13.80;99.90;;;;;;5007512;28;20037;-80
2022/10/14 13:09:15;;;;;;;6.75;4.78;;;13.80;99.90;;;;;;5016646;28;20495;-81